Time;durP1;ratioP1;P1;durP2;ratioP2;P2;SDS_P1;SDS_P2;PMS_P1;PMS_P2;Temp;Humidity;BMP_temperature;BMP_pressure;BME280_temperature;BME280_humidity;BME280_pressure;Samples;Min_cycle;Max_cycle;Signal;HPM_P1;HPM_P2
2022/03/06 00:00:59;;;;;;;5.60;4.90;;;;;;;;;;5095904;28;20207;-81
2022/03/06 00:03:29;;;;;;;5.43;4.93;;;;;;;;;;5095113;28;20208;-80
2022/03/06 00:05:56;;;;;;;5.90;5.32;;;;;;;;;;5094575;28;20208;-81
2022/03/06 00:08:23;;;;;;;4.93;4.47;;;;;;;;;;5094686;28;20224;-80
2022/03/06 00:10:51;;;;;;;6.75;5.82;;;;;;;;;;5094853;28;20200;-80
2022/03/06 00:13:19;;;;;;;4.95;4.50;;;;;;;;;;5094436;28;20196;-80
2022/03/06 00:15:46;;;;;;;6.05;5.07;;;;;;;;;;5095265;28;20212;-80
2022/03/06 00:18:13;;;;;;;4.93;4.45;;;;;;;;;;5094663;28;20223;-80
2022/03/06 00:20:43;;;;;;;5.53;5.03;;;;;;;;;;5095172;28;20200;-80
2022/03/06 00:23:11;;;;;;;6.95;4.57;;;;;;;;;;5094212;28;20207;-81
2022/03/06 00:25:38;;;;;;;5.55;5.05;;;;;;;;;;5094752;28;20208;-82
2022/03/06 00:28:06;;;;;;;5.38;4.88;;;;;;;;;;5094641;28;20270;-80
2022/03/06 00:30:33;;;;;;;9.32;5.18;;;;;;;;;;5094428;28;20618;-80
2022/03/06 00:33:00;;;;;;;4.35;3.95;;;;;;;;;;5094861;28;20261;-80
2022/03/06 00:35:28;;;;;;;5.45;4.65;;;;;;;;;;5094694;28;20726;-80
2022/03/06 00:37:57;;;;;;;5.25;4.75;;;;;;;;;;5095085;28;20328;-80
2022/03/06 00:40:26;;;;;;;4.95;4.38;;;;;;;;;;5094521;28;20211;-80
2022/03/06 00:42:53;;;;;;;6.82;4.90;;;;;;;;;;5094435;28;20664;-83
2022/03/06 00:45:21;;;;;;;5.95;5.40;;;;;;;;;;5095319;28;20197;-81
2022/03/06 00:47:48;;;;;;;5.95;5.30;;;;;;;;;;5095960;28;20216;-80
2022/03/06 00:50:15;;;;;;;5.10;4.60;;;;;;;;;;5095334;28;20212;-80
2022/03/06 00:52:42;;;;;;;6.10;5.38;;;;;;;;;;5094963;28;20204;-81
2022/03/06 00:55:11;;;;;;;7.30;5.57;;;;;;;;;;5094150;28;20223;-80
2022/03/06 00:57:39;;;;;;;6.55;4.95;;;;;;;;;;5094205;28;20224;-80
2022/03/06 01:00:08;;;;;;;5.47;4.97;;;;;;;;;;5094088;28;20664;-81
2022/03/06 01:02:36;;;;;;;5.93;5.43;;;;;;;;;;5093367;28;20676;-79
2022/03/06 01:05:03;;;;;;;9.50;5.63;;;;;;;;;;5094381;28;20197;-80
2022/03/06 01:07:31;;;;;;;6.57;5.40;;;;;;;;;;5093642;28;20216;-80
2022/03/06 01:09:58;;;;;;;5.47;4.93;;;;;;;;;;5093883;28;20202;-82
2022/03/06 01:12:27;;;;;;;4.85;4.45;;;;;;;;;;5093649;28;20200;-82
2022/03/06 01:14:54;;;;;;;6.15;5.57;;;;;;;;;;5093365;28;20220;-82
2022/03/06 01:17:21;;;;;;;5.70;5.20;;;;;;;;;;5093566;28;20218;-80
2022/03/06 01:19:49;;;;;;;4.90;4.43;;;;;;;;;;5092599;28;20200;-80
2022/03/06 01:22:17;;;;;;;6.22;5.45;;;;;;;;;;5093342;28;20203;-80
2022/03/06 01:24:44;;;;;;;6.32;5.75;;;;;;;;;;5093298;28;20196;-80
2022/03/06 01:27:12;;;;;;;5.78;5.10;;;;;;;;;;5093076;28;20692;-83
2022/03/06 01:29:40;;;;;;;7.07;5.97;;;;;;;;;;5092970;28;20204;-79
2022/03/06 01:32:08;;;;;;;5.15;4.65;;;;;;;;;;5092857;28;20204;-79
2022/03/06 01:34:36;;;;;;;5.72;5.22;;;;;;;;;;5092658;28;20231;-82
2022/03/06 01:37:03;;;;;;;6.00;5.40;;;;;;;;;;5093029;28;20207;-81
2022/03/06 01:39:31;;;;;;;6.32;4.93;;;;;;;;;;5093183;28;20204;-82
2022/03/06 01:41:58;;;;;;;5.22;4.65;;;;;;;;;;5092881;28;20204;-82
2022/03/06 01:44:25;;;;;;;5.25;4.80;;;;;;;;;;5092786;28;20203;-81
2022/03/06 01:46:54;;;;;;;4.80;4.40;;;;;;;;;;5092806;28;20200;-82
2022/03/06 01:49:21;;;;;;;5.32;4.82;;;;;;;;;;5092770;28;20203;-82
2022/03/06 01:51:49;;;;;;;5.40;4.88;;;;;;;;;;5092932;28;20208;-81
2022/03/06 01:54:16;;;;;;;5.93;5.25;;;;;;;;;;5092650;28;20704;-83
2022/03/06 01:56:44;;;;;;;5.22;4.72;;;;;;;;;;5092912;28;20216;-82
2022/03/06 01:59:12;;;;;;;7.05;5.97;;;;;;;;;;5093344;28;20200;-82
2022/03/06 02:01:39;;;;;;;4.88;4.43;;;;;;;;;;5092641;28;20211;-82
2022/03/06 02:04:08;;;;;;;6.10;5.53;;;;;;;;;;5092975;28;20673;-81
2022/03/06 02:06:37;;;;;;;6.18;5.32;;;;;;;;;;5092702;28;20196;-82
2022/03/06 02:09:04;;;;;;;5.57;5.05;;;;;;;;;;5092905;28;20311;-81
2022/03/06 02:11:32;;;;;;;6.63;5.93;;;;;;;;;;5092517;28;20249;-82
2022/03/06 02:14:02;;;;;;;5.88;5.28;;;;;;;;;;5092409;28;20197;-82
2022/03/06 02:16:33;;;;;;;6.70;6.10;;;;;;;;;;5093286;28;20293;-82
2022/03/06 02:19:00;;;;;;;5.32;4.80;;;;;;;;;;5093261;28;20736;-82
2022/03/06 02:21:29;;;;;;;7.05;6.00;;;;;;;;;;5092882;28;20207;-82
2022/03/06 02:23:56;;;;;;;5.47;4.93;;;;;;;;;;5092539;28;20270;-82
2022/03/06 02:26:24;;;;;;;5.32;4.82;;;;;;;;;;5092373;28;20203;-81
2022/03/06 02:28:51;;;;;;;6.07;5.57;;;;;;;;;;5092485;28;20228;-81
2022/03/06 02:31:18;;;;;;;6.57;5.95;;;;;;;;;;5096617;28;20778;-82
2022/03/06 02:33:45;;;;;;;5.72;5.18;;;;;;;;;;5096260;28;20571;-82
2022/03/06 02:36:13;;;;;;;6.55;5.85;;;;;;;;;;5096660;28;20633;-81
2022/03/06 02:38:41;;;;;;;6.93;6.22;;;;;;;;;;5096201;28;20319;-81
2022/03/06 02:41:09;;;;;;;6.13;5.53;;;;;;;;;;5096235;28;20210;-81
2022/03/06 02:43:36;;;;;;;7.80;7.00;;;;;;;;;;5096134;28;20197;-82
2022/03/06 02:46:03;;;;;;;7.53;6.25;;;;;;;;;;5096258;28;20718;-82
2022/03/06 02:48:31;;;;;;;6.00;5.40;;;;;;;;;;5096006;28;20224;-82
2022/03/06 02:50:58;;;;;;;6.93;6.18;;;;;;;;;;5095711;28;20209;-82
2022/03/06 02:53:25;;;;;;;7.30;5.90;;;;;;;;;;5095995;28;20207;-81
2022/03/06 02:55:54;;;;;;;7.28;5.88;;;;;;;;;;5096493;28;20215;-81
2022/03/06 02:58:22;;;;;;;5.82;5.22;;;;;;;;;;5096356;28;20719;-83
2022/03/06 03:00:50;;;;;;;6.47;5.65;;;;;;;;;;5095777;28;20799;-81
2022/03/06 03:03:18;;;;;;;5.65;4.97;;;;;;;;;;5096344;28;20226;-81
2022/03/06 03:05:45;;;;;;;5.70;5.03;;;;;;;;;;5096098;28;20199;-81
2022/03/06 03:08:13;;;;;;;7.45;6.40;;;;;;;;;;5095703;28;20235;-83
2022/03/06 03:10:40;;;;;;;6.47;5.90;;;;;;;;;;5095687;28;20204;-83
2022/03/06 03:13:08;;;;;;;6.43;5.80;;;;;;;;;;5095495;28;20204;-81
2022/03/06 03:15:36;;;;;;;5.32;4.82;;;;;;;;;;5095117;28;20281;-82
2022/03/06 03:18:04;;;;;;;5.63;5.13;;;;;;;;;;5095604;28;20227;-81
2022/03/06 03:20:31;;;;;;;5.57;5.07;;;;;;;;;;5095642;28;20664;-81
2022/03/06 03:22:59;;;;;;;6.65;6.03;;;;;;;;;;5095003;28;20203;-82
2022/03/06 03:25:26;;;;;;;7.18;6.25;;;;;;;;;;5095553;28;20203;-81
2022/03/06 03:27:53;;;;;;;6.90;6.20;;;;;;;;;;5095491;28;20220;-81
2022/03/06 03:30:22;;;;;;;6.25;5.65;;;;;;;;;;5095681;28;20211;-81
2022/03/06 03:32:49;;;;;;;5.30;4.78;;;;;;;;;;5094659;28;20196;-82
2022/03/06 03:35:16;;;;;;;4.28;3.88;;;;;;;;;;5095807;28;20209;-81
2022/03/06 03:37:44;;;;;;;5.32;4.82;;;;;;;;;;5095245;28;20224;-82
2022/03/06 03:40:12;;;;;;;5.95;5.38;;;;;;;;;;5094497;28;20213;-82
2022/03/06 03:42:40;;;;;;;7.10;5.80;;;;;;;;;;5094671;28;20201;-81
2022/03/06 03:45:08;;;;;;;6.85;6.15;;;;;;;;;;5094768;28;20203;-82
2022/03/06 03:47:37;;;;;;;5.70;5.20;;;;;;;;;;5094578;28;20217;-81
2022/03/06 03:50:06;;;;;;;6.60;5.18;;;;;;;;;;5095132;28;20665;-79
2022/03/06 03:52:34;;;;;;;6.70;6.05;;;;;;;;;;5094500;28;20664;-79
2022/03/06 03:55:01;;;;;;;7.10;5.10;;;;;;;;;;5094144;28;20280;-79
2022/03/06 03:57:29;;;;;;;6.88;6.20;;;;;;;;;;5094010;28;20653;-82
2022/03/06 03:59:56;;;;;;;6.38;5.45;;;;;;;;;;5094496;28;20207;-81
2022/03/06 04:02:23;;;;;;;6.60;5.85;;;;;;;;;;5094795;28;20204;-81
2022/03/06 04:04:53;;;;;;;6.32;5.13;;;;;;;;;;5094335;28;20637;-81
2022/03/06 04:07:20;;;;;;;5.35;4.85;;;;;;;;;;5094131;28;20266;-81
2022/03/06 04:09:48;;;;;;;6.07;5.47;;;;;;;;;;5094805;28;20200;-82
2022/03/06 04:12:15;;;;;;;5.10;4.60;;;;;;;;;;5094065;28;20625;-81
2022/03/06 04:14:42;;;;;;;7.13;5.20;;;;;;;;;;5094352;28;20200;-82
2022/03/06 04:17:10;;;;;;;6.65;6.00;;;;;;;;;;5094206;28;20224;-80
2022/03/06 04:19:37;;;;;;;5.93;5.43;;;;;;;;;;5094272;28;20204;-80
2022/03/06 04:22:06;;;;;;;6.10;5.50;;;;;;;;;;5093267;28;20257;-81
2022/03/06 04:24:33;;;;;;;5.60;5.10;;;;;;;;;;5094259;28;20246;-80
2022/03/06 04:27:00;;;;;;;5.68;5.13;;;;;;;;;;5094125;28;20632;-81
2022/03/06 04:29:28;;;;;;;5.78;5.28;;;;;;;;;;5094204;28;20200;-80
2022/03/06 04:31:55;;;;;;;4.88;4.47;;;;;;;;;;5093308;28;20204;-78
2022/03/06 04:34:22;;;;;;;5.55;5.05;;;;;;;;;;5093068;28;20209;-82
2022/03/06 04:36:50;;;;;;;6.60;5.90;;;;;;;;;;5093356;28;20277;-81
2022/03/06 04:39:18;;;;;;;6.45;4.80;;;;;;;;;;5097735;28;20265;-80
2022/03/06 04:41:46;;;;;;;6.43;5.50;;;;;;;;;;5107851;28;20200;-80
2022/03/06 04:44:13;;;;;;;7.70;5.45;;;;;;;;;;5108638;28;20204;-80
2022/03/06 04:46:41;;;;;;;6.13;5.63;;;;;;;;;;5108344;28;20232;-82
2022/03/06 04:49:08;;;;;;;6.60;5.82;;;;;;;;;;5109411;28;20216;-80
2022/03/06 04:51:35;;;;;;;6.95;5.60;;;;;;;;;;5102000;28;20208;-81
2022/03/06 04:54:03;;;;;;;7.80;6.20;;;;;;;;;;5095137;28;20200;-81
2022/03/06 04:56:32;;;;;;;5.75;4.90;;;;;;;;;;5094930;28;20266;-80
2022/03/06 04:58:59;;;;;;;6.60;5.65;;;;;;;;;;5094159;28;20220;-80
2022/03/06 05:01:26;;;;;;;6.45;5.85;;;;;;;;;;5094283;28;20200;-81
2022/03/06 05:03:56;;;;;;;6.68;5.95;;;;;;;;;;5094278;28;20269;-80
2022/03/06 05:06:24;;;;;;;5.30;4.80;;;;;;;;;;5094910;28;20207;-80
2022/03/06 05:08:51;;;;;;;6.15;5.63;;;;;;;;;;5100430;28;20220;-80
2022/03/06 05:11:24;;;;;;;6.88;6.15;;;;;;;;;;5101169;28;20681;-80
2022/03/06 05:13:53;;;;;;;6.25;5.65;;;;;;;;;;5099997;28;20261;-80
2022/03/06 05:16:20;;;;;;;7.53;6.78;;;;;;;;;;5097807;28;20211;-80
2022/03/06 05:18:47;;;;;;;7.28;6.18;;;;;;;;;;5093810;28;20220;-81
2022/03/06 05:21:15;;;;;;;8.52;6.05;;;;;;;;;;5093473;28;20208;-81
2022/03/06 05:23:42;;;;;;;8.93;6.97;;;;;;;;;;5093048;28;20203;-80
2022/03/06 05:26:09;;;;;;;6.57;5.70;;;;;;;;;;5093182;28;20233;-82
2022/03/06 05:28:37;;;;;;;8.63;6.55;;;;;;;;;;5093189;28;20227;-81
2022/03/06 05:31:05;;;;;;;7.63;6.00;;;;;;;;;;5093530;28;20204;-81
2022/03/06 05:33:32;;;;;;;5.65;5.15;;;;;;;;;;5093166;28;20246;-81
2022/03/06 05:36:00;;;;;;;7.05;6.35;;;;;;;;;;5093512;28;20668;-80
2022/03/06 05:38:27;;;;;;;8.60;6.85;;;;;;;;;;5092759;28;20235;-80
2022/03/06 05:40:54;;;;;;;7.32;6.38;;;;;;;;;;5092861;28;20192;-80
2022/03/06 05:43:22;;;;;;;4.95;4.50;;;;;;;;;;5093466;28;20199;-81
2022/03/06 05:45:51;;;;;;;6.95;6.28;;;;;;;;;;5093250;28;20208;-80
2022/03/06 05:48:20;;;;;;;7.78;7.07;;;;;;;;;;5094525;28;20223;-80
2022/03/06 05:50:48;;;;;;;5.90;5.40;;;;;;;;;;5093992;28;20200;-80
2022/03/06 05:53:15;;;;;;;6.53;5.80;;;;;;;;;;5094319;28;20200;-81
2022/03/06 05:55:43;;;;;;;7.00;5.88;;;;;;;;;;5093909;28;20204;-80
2022/03/06 05:58:10;;;;;;;7.32;6.50;;;;;;;;;;5093452;28;20228;-80
2022/03/06 06:00:37;;;;;;;6.32;5.72;;;;;;;;;;5091538;28;20193;-80
2022/03/06 06:03:05;;;;;;;6.28;5.63;;;;;;;;;;5092270;28;20200;-79
2022/03/06 06:05:34;;;;;;;5.95;5.45;;;;;;;;;;5096144;28;20211;-79
2022/03/06 06:08:02;;;;;;;5.68;5.18;;;;;;;;;;5096813;28;20626;-80
2022/03/06 06:10:29;;;;;;;6.00;5.43;;;;;;;;;;5098419;28;20204;-79
2022/03/06 06:12:56;;;;;;;6.80;6.10;;;;;;;;;;5098398;28;20258;-79
2022/03/06 06:15:23;;;;;;;5.07;4.57;;;;;;;;;;5099244;28;20192;-79
2022/03/06 06:17:51;;;;;;;5.82;5.32;;;;;;;;;;5097758;28;20220;-79
2022/03/06 06:20:18;;;;;;;6.10;5.45;;;;;;;;;;5102560;28;20204;-80
2022/03/06 06:22:47;;;;;;;6.50;5.88;;;;;;;;;;5097661;28;20208;-80
2022/03/06 06:25:14;;;;;;;6.82;6.18;;;;;;;;;;5096474;28;20204;-79
2022/03/06 06:27:41;;;;;;;7.00;6.22;;;;;;;;;;5096941;28;20220;-79
2022/03/06 06:30:10;;;;;;;8.73;7.47;;;;;;;;;;5096539;28;20215;-80
2022/03/06 06:32:37;;;;;;;7.90;7.10;;;;;;;;;;5096595;28;20668;-79
2022/03/06 06:35:05;;;;;;;7.70;6.97;;;;;;;;;;5096186;28;20211;-79
2022/03/06 06:37:33;;;;;;;7.85;7.15;;;;;;;;;;5096238;28;20285;-79
2022/03/06 06:40:01;;;;;;;8.55;7.15;;;;;;;;;;5096278;28;20208;-79
2022/03/06 06:42:29;;;;;;;8.35;7.28;;;;;;;;;;5096333;28;20612;-80
2022/03/06 06:44:56;;;;;;;8.43;7.38;;;;;;;;;;5097422;28;20208;-79
2022/03/06 06:47:23;;;;;;;7.95;7.07;;;;;;;;;;5095991;28;20232;-79
2022/03/06 06:49:50;;;;;;;8.65;7.28;;;;;;;;;;5096147;28;20725;-79
2022/03/06 06:52:18;;;;;;;6.53;5.88;;;;;;;;;;5096302;28;20257;-79
2022/03/06 06:54:45;;;;;;;7.57;6.88;;;;;;;;;;5095756;28;20253;-78
2022/03/06 06:57:14;;;;;;;7.13;6.00;;;;;;;;;;5096388;28;20273;-80
2022/03/06 06:59:41;;;;;;;5.90;5.30;;;;;;;;;;5095976;28;20211;-79
2022/03/06 07:02:08;;;;;;;6.72;5.80;;;;;;;;;;5095672;28;20215;-79
2022/03/06 07:04:36;;;;;;;7.22;6.30;;;;;;;;;;5096058;28;20257;-79
2022/03/06 07:07:03;;;;;;;7.38;6.68;;;;;;;;;;5095866;28;20345;-80
2022/03/06 07:09:30;;;;;;;9.05;7.18;;;;;;;;;;5095575;28;20650;-79
2022/03/06 07:11:58;;;;;;;8.00;6.47;;;;;;;;;;5095374;28;20211;-79
2022/03/06 07:14:26;;;;;;;8.35;7.20;;;;;;;;;;5094978;28;20598;-80
2022/03/06 07:16:53;;;;;;;7.50;6.70;;;;;;;;;;5094803;28;20215;-78
2022/03/06 07:19:21;;;;;;;7.82;7.03;;;;;;;;;;5094684;28;20228;-79
2022/03/06 07:21:48;;;;;;;7.18;5.93;;;;;;;;;;5094698;28;20215;-78
2022/03/06 07:24:15;;;;;;;9.60;7.13;;;;;;;;;;5095525;28;20205;-78
2022/03/06 07:26:43;;;;;;;5.75;4.72;;;;;;;;;;5095971;28;20212;-80
2022/03/06 07:29:10;;;;;;;4.43;4.03;;;;;;;;;;5095205;28;20207;-79
2022/03/06 07:31:39;;;;;;;5.50;5.00;;;;;;;;;;5094531;28;20228;-79
2022/03/06 07:34:06;;;;;;;5.82;5.15;;;;;;;;;;5095838;28;20215;-79
2022/03/06 07:36:34;;;;;;;5.93;5.32;;;;;;;;;;5095261;28;20295;-79
2022/03/06 07:39:01;;;;;;;7.40;6.32;;;;;;;;;;5094820;28;20232;-79
2022/03/06 07:41:28;;;;;;;4.95;4.55;;;;;;;;;;5094191;28;20203;-79
2022/03/06 07:43:56;;;;;;;6.20;5.60;;;;;;;;;;5095273;28;20265;-80
2022/03/06 07:46:23;;;;;;;7.30;6.00;;;;;;;;;;5094446;28;20208;-80
2022/03/06 07:48:51;;;;;;;7.32;6.45;;;;;;;;;;5094706;28;20567;-80
2022/03/06 07:51:19;;;;;;;8.18;7.38;;;;;;;;;;5094603;28;20675;-80
2022/03/06 07:53:47;;;;;;;7.18;6.50;;;;;;;;;;5094559;28;20282;-80
2022/03/06 07:56:14;;;;;;;6.30;5.60;;;;;;;;;;5094910;28;20219;-80
2022/03/06 07:58:41;;;;;;;8.48;6.40;;;;;;;;;;5094558;28;20228;-80
2022/03/06 08:01:08;;;;;;;6.80;6.15;;;;;;;;;;5094090;28;20211;-80
2022/03/06 08:03:36;;;;;;;7.57;6.88;;;;;;;;;;5094772;28;20204;-80
2022/03/06 08:06:04;;;;;;;7.18;6.53;;;;;;;;;;5094839;28;20576;-80
2022/03/06 08:08:32;;;;;;;7.60;6.90;;;;;;;;;;5094423;28;20231;-80
2022/03/06 08:10:59;;;;;;;8.68;7.88;;;;;;;;;;5094352;28;20231;-80
2022/03/06 08:13:26;;;;;;;6.47;5.88;;;;;;;;;;5093944;28;20656;-80
2022/03/06 08:15:53;;;;;;;6.30;5.70;;;;;;;;;;5093929;28;20721;-80
2022/03/06 08:18:21;;;;;;;7.05;5.97;;;;;;;;;;5094165;28;20638;-80
2022/03/06 08:20:48;;;;;;;6.53;5.68;;;;;;;;;;5088156;28;20215;-81
2022/03/06 08:23:16;;;;;;;6.70;6.03;;;;;;;;;;5094490;28;20561;-80
2022/03/06 08:25:44;;;;;;;5.00;4.32;;;;;;;;;;5087442;28;20212;-82
2022/03/06 08:28:11;;;;;;;7.43;6.25;;;;;;;;;;5086588;28;20252;-78
2022/03/06 08:30:39;;;;;;;7.95;6.35;;;;;;;;;;5087855;28;20204;-81
2022/03/06 08:33:06;;;;;;;8.35;7.00;;;;;;;;;;5087410;28;20208;-81
2022/03/06 08:35:34;;;;;;;8.43;6.60;;;;;;;;;;5088152;28;20212;-82
2022/03/06 08:38:01;;;;;;;6.60;5.95;;;;;;;;;;5087605;28;20224;-82
2022/03/06 08:40:31;;;;;;;6.03;5.53;;;;;;;;;;5086874;28;20231;-82
2022/03/06 08:42:58;;;;;;;4.72;4.32;;;;;;;;;;5087157;28;20216;-79
2022/03/06 08:45:25;;;;;;;4.63;4.20;;;;;;;;;;5086983;28;20211;-79
2022/03/06 08:47:53;;;;;;;5.47;4.97;;;;;;;;;;5093357;28;20228;-79
2022/03/06 08:50:20;;;;;;;6.32;5.75;;;;;;;;;;5086895;28;20200;-81
2022/03/06 08:52:48;;;;;;;6.60;6.00;;;;;;;;;;5086036;28;20208;-82
2022/03/06 08:55:15;;;;;;;4.85;4.45;;;;;;;;;;5089400;28;20208;-82
2022/03/06 08:57:43;;;;;;;7.35;6.75;;;;;;;;;;5092519;28;20224;-81
2022/03/06 09:00:12;;;;;;;6.00;4.72;;;;;;;;;;5086781;28;20228;-82
2022/03/06 09:02:39;;;;;;;7.38;6.63;;;;;;;;;;5092534;28;20208;-82
2022/03/06 09:05:08;;;;;;;7.55;6.60;;;;;;;;;;5086061;28;20686;-81
2022/03/06 09:07:35;;;;;;;7.40;6.70;;;;;;;;;;5086227;28;20228;-82
2022/03/06 09:10:03;;;;;;;7.57;6.53;;;;;;;;;;5085869;28;20196;-78
2022/03/06 09:12:30;;;;;;;7.65;6.63;;;;;;;;;;5085573;28;20236;-79
2022/03/06 09:15:00;;;;;;;10.93;7.57;;;;;;;;;;5086701;28;20220;-82
2022/03/06 09:17:27;;;;;;;7.28;6.60;;;;;;;;;;5093106;28;20245;-80
2022/03/06 09:19:55;;;;;;;7.80;7.00;;;;;;;;;;5086370;28;20714;-79
2022/03/06 09:22:23;;;;;;;6.72;6.13;;;;;;;;;;5086029;28;20253;-80
2022/03/06 09:24:50;;;;;;;7.43;6.72;;;;;;;;;;5093237;28;20254;-80
2022/03/06 09:27:17;;;;;;;7.63;6.53;;;;;;;;;;5086458;28;20297;-82
2022/03/06 09:29:45;;;;;;;8.50;7.30;;;;;;;;;;5092628;28;20200;-83
2022/03/06 09:32:13;;;;;;;7.63;6.82;;;;;;;;;;5092159;28;20212;-79
2022/03/06 09:34:42;;;;;;;7.95;6.38;;;;;;;;;;5086630;28;20253;-79
2022/03/06 09:37:10;;;;;;;6.80;6.20;;;;;;;;;;5092431;28;20224;-82
2022/03/06 09:39:37;;;;;;;6.78;6.03;;;;;;;;;;5092707;28;20239;-79
2022/03/06 09:42:05;;;;;;;6.57;5.97;;;;;;;;;;5085318;28;20563;-80
2022/03/06 09:44:36;;;;;;;5.80;5.30;;;;;;;;;;5086230;28;20204;-80
2022/03/06 09:47:05;;;;;;;5.88;5.38;;;;;;;;;;5086290;28;20208;-79
2022/03/06 09:49:34;;;;;;;7.10;6.50;;;;;;;;;;5092890;28;20204;-80
2022/03/06 09:52:02;;;;;;;4.93;4.50;;;;;;;;;;5091345;28;20204;-78
2022/03/06 09:54:30;;;;;;;6.63;6.03;;;;;;;;;;5091834;28;20590;-80
2022/03/06 09:56:57;;;;;;;5.25;4.68;;;;;;;;;;5092270;28;20692;-80
2022/03/06 09:59:24;;;;;;;6.40;5.72;;;;;;;;;;5092440;28;20619;-81
2022/03/06 10:01:52;;;;;;;6.40;5.22;;;;;;;;;;5086591;28;20212;-82
2022/03/06 10:04:25;;;;;;;6.50;5.90;;;;;;;;;;5092688;28;20208;-81
2022/03/06 10:07:05;;;;;;;5.88;5.35;;;;;;;;;;5092196;28;20748;-80
2022/03/06 10:09:34;;;;;;;7.63;6.95;;;;;;;;;;5092395;28;20263;-80
2022/03/06 10:12:02;;;;;;;4.47;4.07;;;;;;;;;;5092466;28;20266;-80
2022/03/06 10:14:38;;;;;;;5.15;4.43;;;;;;;;;;5092912;28;20230;-81
2022/03/06 10:17:17;;;;;;;6.70;6.10;;;;;;;;;;5092033;28;20224;-81
2022/03/06 10:20:03;;;;;;;6.80;5.60;;;;;;;;;;5092184;28;20311;-80
2022/03/06 10:22:34;;;;;;;7.30;6.60;;;;;;;;;;5087063;28;20299;-81
2022/03/06 10:25:06;;;;;;;6.10;5.60;;;;;;;;;;5092344;28;20208;-80
2022/03/06 10:27:53;;;;;;;6.85;6.15;;;;;;;;;;5091739;28;20234;-80
2022/03/06 10:30:30;;;;;;;5.47;4.97;;;;;;;;;;5092163;28;20200;-79
2022/03/06 10:32:59;;;;;;;6.18;5.05;;;;;;;;;;5085369;28;20200;-80
2022/03/06 10:35:34;;;;;;;5.95;5.45;;;;;;;;;;5086478;28;20211;-79
2022/03/06 10:38:16;;;;;;;6.57;5.95;;;;;;;;;;5091865;28;20232;-81
2022/03/06 10:40:44;;;;;;;6.00;5.47;;;;;;;;;;5092209;28;20257;-80
2022/03/06 10:43:23;;;;;;;6.47;5.88;;;;;;;;;;5091877;28;20211;-81
2022/03/06 10:45:53;;;;;;;6.05;5.45;;;;;;;;;;5092518;28;20204;-81
2022/03/06 10:48:20;;;;;;;8.38;6.40;;;;;;;;;;5092193;28;20281;-81
2022/03/06 10:50:47;;;;;;;8.25;7.00;;;;;;;;;;5093664;28;20656;-81
2022/03/06 10:53:23;;;;;;;7.78;6.95;;;;;;;;;;5095515;28;20204;-79
2022/03/06 10:55:51;;;;;;;7.30;6.18;;;;;;;;;;5095124;28;20251;-81
2022/03/06 10:58:19;;;;;;;8.27;7.53;;;;;;;;;;5097466;28;20298;-81
2022/03/06 11:00:47;;;;;;;7.63;6.93;;;;;;;;;;5096481;28;20286;-80
2022/03/06 11:03:15;;;;;;;7.82;6.68;;;;;;;;;;5095452;28;20625;-79
2022/03/06 11:05:44;;;;;;;7.10;6.40;;;;;;;;;;5096328;28;20211;-80
2022/03/06 11:08:15;;;;;;;7.45;6.75;;;;;;;;;;5096164;28;20227;-80
2022/03/06 11:10:45;;;;;;;8.63;7.93;;;;;;;;;;5090346;28;20668;-79
2022/03/06 11:13:14;;;;;;;7.75;7.03;;;;;;;;;;5090747;28;20207;-79
2022/03/06 11:15:42;;;;;;;7.65;6.85;;;;;;;;;;5096726;28;20212;-80
2022/03/06 11:18:09;;;;;;;7.40;6.78;;;;;;;;;;5096294;28;20649;-80
2022/03/06 11:20:40;;;;;;;7.22;6.53;;;;;;;;;;5096018;28;20228;-80
2022/03/06 11:23:22;;;;;;;7.68;6.97;;;;;;;;;;5095538;28;20251;-80
2022/03/06 11:26:40;;;;;;;7.68;6.97;;;;;;;;;;5095711;28;20777;-81
2022/03/06 11:30:04;;;;;;;8.85;7.95;;;;;;;;;;5094941;28;20834;-81
2022/03/06 11:32:35;;;;;;;7.15;6.53;;;;;;;;;;5007806;28;20218;-81
2022/03/06 11:35:08;;;;;;;7.07;6.47;;;;;;;;;;5032785;28;20233;-81
2022/03/06 11:37:57;;;;;;;7.10;6.50;;;;;;;;;;5074591;28;20289;-79
2022/03/06 11:40:52;;;;;;;7.32;6.60;;;;;;;;;;5097377;28;20227;-80
2022/03/06 11:43:43;;;;;;;9.32;8.32;;;;;;;;;;5096621;28;20594;-81
2022/03/06 11:46:17;;;;;;;8.32;7.53;;;;;;;;;;5092289;28;20211;-80
2022/03/06 11:49:12;;;;;;;8.23;7.32;;;;;;;;;;5097094;28;20225;-80
2022/03/06 11:51:49;;;;;;;7.05;6.35;;;;;;;;;;5094805;28;20200;-80
2022/03/06 11:54:24;;;;;;;6.60;6.00;;;;;;;;;;5089369;28;20637;-80
2022/03/06 11:57:02;;;;;;;8.43;7.45;;;;;;;;;;5094824;28;20219;-81
2022/03/06 11:59:44;;;;;;;6.97;6.38;;;;;;;;;;5095338;28;20200;-80
2022/03/06 12:02:20;;;;;;;7.57;6.75;;;;;;;;;;5094074;28;20224;-80
2022/03/06 12:04:53;;;;;;;8.20;6.38;;;;;;;;;;5095220;28;20203;-81
2022/03/06 12:07:21;;;;;;;8.55;7.85;;;;;;;;;;5096742;28;20609;-80
2022/03/06 12:09:53;;;;;;;7.85;7.15;;;;;;;;;;5089169;28;20242;-80
2022/03/06 12:12:22;;;;;;;7.22;6.63;;;;;;;;;;5091040;28;20211;-79
2022/03/06 12:14:54;;;;;;;7.13;6.43;;;;;;;;;;5097004;28;20299;-81
2022/03/06 12:17:38;;;;;;;7.68;6.97;;;;;;;;;;5099306;28;20227;-80
2022/03/06 12:20:25;;;;;;;6.72;6.13;;;;;;;;;;5096383;28;20227;-80
2022/03/06 12:23:02;;;;;;;6.82;6.18;;;;;;;;;;5096621;28;20257;-81
2022/03/06 12:25:31;;;;;;;5.82;5.32;;;;;;;;;;5092561;28;20200;-81
2022/03/06 12:28:25;;;;;;;5.63;5.22;;;;;;;;;;5102232;22;20234;-83
2022/03/06 12:30:56;;;;;;;6.70;6.03;;;;;;;;;;5071026;28;20217;-84
2022/03/06 12:33:38;;;;;;;6.60;5.85;;;;;;;;;;5073276;28;20202;-83
2022/03/06 12:36:33;;;;;;;6.72;6.03;;;;;;;;;;5065933;28;20292;-84
2022/03/06 12:39:04;;;;;;;7.63;6.95;;;;;;;;;;5018210;28;20221;-84
2022/03/06 12:41:34;;;;;;;8.55;7.75;;;;;;;;;;5065913;28;20237;-84
2022/03/06 12:44:08;;;;;;;8.85;8.00;;;;;;;;;;5065461;28;20221;-84
2022/03/06 12:46:37;;;;;;;8.38;7.57;;;;;;;;;;5065316;28;20218;-83
2022/03/06 12:49:05;;;;;;;10.45;8.25;;;;;;;;;;5063804;28;20235;-84
2022/03/06 12:51:42;;;;;;;8.50;7.63;;;;;;;;;;5063067;28;20267;-84
2022/03/06 12:54:22;;;;;;;9.40;8.48;;;;;;;;;;5062481;28;20194;-83
2022/03/06 12:56:57;;;;;;;8.32;7.05;;;;;;;;;;5062925;28;20212;-83
2022/03/06 12:59:25;;;;;;;8.77;7.88;;;;;;;;;;5062627;28;20297;-84
2022/03/06 13:01:54;;;;;;;7.97;7.18;;;;;;;;;;5059238;28;20233;-84
2022/03/06 13:04:23;;;;;;;8.60;7.78;;;;;;;;;;5062971;28;20201;-84
2022/03/06 13:06:51;;;;;;;6.22;5.63;;;;;;;;;;5063869;28;20198;-84
2022/03/06 13:09:29;;;;;;;6.07;5.47;;;;;;;;;;5064551;28;20237;-84
2022/03/06 13:11:57;;;;;;;6.45;5.85;;;;;;;;;;5063483;28;20202;-84
2022/03/06 13:14:33;;;;;;;8.15;5.72;;;;;;;;;;5063003;28;20561;-84
2022/03/06 13:17:06;;;;;;;4.63;4.25;;;;;;;;;;5064782;28;20235;-84
2022/03/06 13:19:43;;;;;;;8.50;5.32;;;;;;;;;;5059839;28;20205;-84
2022/03/06 13:22:13;;;;;;;3.72;3.42;;;;;;;;;;5065830;28;20312;-84
2022/03/06 13:24:43;;;;;;;4.60;3.95;;;;;;;;;;5064898;28;20201;-84
2022/03/06 13:27:14;;;;;;;4.55;4.15;;;;;;;;;;5068860;28;20210;-84
2022/03/06 13:29:41;;;;;;;3.20;3.00;;;;;;;;;;5073525;28;20210;-83
2022/03/06 13:32:10;;;;;;;5.85;4.60;;;;;;;;;;5069516;28;20217;-83
2022/03/06 13:34:44;;;;;;;5.05;4.55;;;;;;;;;;5057378;28;20213;-84
2022/03/06 13:37:12;;;;;;;4.88;4.43;;;;;;;;;;5059255;28;20209;-84
2022/03/06 13:39:42;;;;;;;5.07;4.60;;;;;;;;;;5059650;28;20241;-84
2022/03/06 13:42:12;;;;;;;6.05;5.45;;;;;;;;;;5060571;28;20254;-84
2022/03/06 13:44:57;;;;;;;5.32;4.82;;;;;;;;;;5060382;28;20201;-84
2022/03/06 13:47:26;;;;;;;5.18;4.70;;;;;;;;;;5059869;28;20251;-83
2022/03/06 13:50:01;;;;;;;5.68;5.18;;;;;;;;;;5057940;28;20216;-83
2022/03/06 13:52:34;;;;;;;6.30;5.40;;;;;;;;;;5059427;28;20228;-84
2022/03/06 13:55:06;;;;;;;5.47;5.07;;;;;;;;;;5066228;28;20209;-84
2022/03/06 13:57:34;;;;;;;6.40;5.03;;;;;;;;;;5059680;28;20225;-84
2022/03/06 14:00:23;;;;;;;6.13;5.45;;;;;;;;;;5059498;28;20212;-83
2022/03/06 14:03:03;;;;;;;7.15;5.43;;;;;;;;;;5060610;28;20232;-83
2022/03/06 14:05:33;;;;;;;7.25;5.75;;;;;;;;;;5055982;28;20213;-83
2022/03/06 14:08:24;;;;;;;5.50;5.00;;;;;;;;;;5056172;28;20229;-83
2022/03/06 14:10:55;;;;;;;5.55;4.95;;;;;;;;;;5062196;28;20206;-83
2022/03/06 14:13:28;;;;;;;5.28;4.85;;;;;;;;;;5064175;28;20228;-84
2022/03/06 14:15:59;;;;;;;5.88;5.28;;;;;;;;;;5063893;28;20205;-83
2022/03/06 14:18:39;;;;;;;5.47;4.97;;;;;;;;;;5063522;28;20228;-82
2022/03/06 14:21:18;;;;;;;5.90;5.50;;;;;;;;;;5059003;28;20212;-83
2022/03/06 14:23:45;;;;;;;5.97;5.38;;;;;;;;;;5063360;28;20229;-83
2022/03/06 14:26:14;;;;;;;6.35;5.75;;;;;;;;;;5068417;28;20209;-83
2022/03/06 14:28:51;;;;;;;6.68;6.07;;;;;;;;;;5070812;28;20243;-83
2022/03/06 14:31:19;;;;;;;6.30;5.68;;;;;;;;;;5069285;28;20220;-83
2022/03/06 14:33:47;;;;;;;7.00;6.03;;;;;;;;;;5068404;28;20208;-83
2022/03/06 14:36:15;;;;;;;6.38;5.78;;;;;;;;;;5069713;28;20211;-84
2022/03/06 14:38:44;;;;;;;5.85;5.35;;;;;;;;;;5068824;28;20229;-84
2022/03/06 14:41:12;;;;;;;5.68;5.10;;;;;;;;;;5070812;28;20220;-83
2022/03/06 14:43:41;;;;;;;4.45;4.05;;;;;;;;;;5070131;28;20233;-84
2022/03/06 14:46:14;;;;;;;5.35;4.50;;;;;;;;;;5070171;28;20210;-84
2022/03/06 14:48:43;;;;;;;5.18;4.18;;;;;;;;;;5069822;28;20229;-84
2022/03/06 14:51:12;;;;;;;5.00;4.60;;;;;;;;;;5071793;28;20210;-83
2022/03/06 14:53:39;;;;;;;4.47;4.07;;;;;;;;;;5072128;28;20197;-83
2022/03/06 14:56:08;;;;;;;4.60;4.18;;;;;;;;;;5073123;28;20205;-84
2022/03/06 14:58:36;;;;;;;5.00;4.57;;;;;;;;;;5070870;28;20229;-84